createdAt,value
2023-03-06T00:00:47.419Z,32.45
2023-03-06T00:03:14.454Z,28.42
2023-03-06T00:05:42.164Z,27.50
2023-03-06T00:08:09.188Z,28.35
2023-03-06T00:10:36.227Z,35.38
2023-03-06T00:13:04.773Z,30.73
2023-03-06T00:15:31.811Z,29.80
2023-03-06T00:17:58.906Z,33.85
2023-03-06T00:20:26.630Z,27.17
2023-03-06T00:22:53.684Z,37.38
2023-03-06T00:25:21.833Z,37.28
2023-03-06T00:27:49.365Z,29.45
2023-03-06T00:30:17.844Z,32.55
2023-03-06T00:32:45.192Z,31.50
2023-03-06T00:35:12.916Z,32.47
2023-03-06T00:37:40.401Z,27.27
2023-03-06T00:40:08.084Z,31.13
2023-03-06T00:42:35.064Z,31.73
2023-03-06T00:45:02.095Z,31.20
2023-03-06T00:47:29.145Z,29.45
2023-03-06T00:49:56.122Z,32.42
2023-03-06T00:52:23.162Z,32.60
2023-03-06T00:54:50.168Z,32.05
2023-03-06T00:57:17.199Z,30.33
2023-03-06T00:59:44.307Z,35.92
2023-03-06T01:02:11.439Z,34.13
2023-03-06T01:04:38.495Z,32.65
2023-03-06T01:07:05.562Z,31.45
2023-03-06T01:09:32.543Z,33.97
2023-03-06T01:11:59.621Z,30.05
2023-03-06T01:14:26.906Z,29.17
2023-03-06T01:16:54.012Z,33.00
2023-03-06T01:19:21.060Z,31.40
2023-03-06T01:21:48.163Z,29.63
2023-03-06T01:24:15.196Z,36.92
2023-03-06T01:26:42.194Z,41.70
2023-03-06T01:29:09.288Z,32.67
2023-03-06T01:31:36.404Z,41.05
2023-03-06T01:34:03.726Z,36.00
2023-03-06T01:36:30.751Z,31.17
2023-03-06T01:38:57.831Z,33.10
2023-03-06T01:41:24.866Z,29.08
2023-03-06T01:43:51.978Z,27.42
2023-03-06T01:46:42.425Z,29.35
2023-03-06T01:49:41.680Z,33.95
2023-03-06T01:52:13.986Z,30.67
2023-03-06T01:54:43.982Z,30.52
2023-03-06T01:57:15.297Z,27.25
2023-03-06T01:59:43.161Z,26.73
2023-03-06T02:02:11.605Z,29.75
2023-03-06T02:04:39.750Z,28.35
2023-03-06T02:07:08.065Z,28.20
2023-03-06T02:09:35.883Z,30.42
2023-03-06T02:12:03.553Z,28.08
2023-03-06T02:14:30.832Z,30.13
2023-03-06T02:16:58.088Z,31.88
2023-03-06T02:19:28.138Z,33.05
2023-03-06T02:21:55.817Z,31.02
2023-03-06T02:24:36.141Z,30.50
2023-03-06T02:27:05.074Z,28.10
2023-03-06T02:29:32.226Z,30.75
2023-03-06T02:31:59.439Z,35.45
2023-03-06T02:34:26.478Z,28.38
2023-03-06T02:37:00.798Z,27.02
2023-03-06T02:39:30.349Z,29.33
2023-03-06T02:41:57.437Z,32.22
2023-03-06T02:44:25.030Z,29.73
2023-03-06T02:46:52.096Z,31.17
2023-03-06T02:49:19.137Z,30.27
2023-03-06T02:51:46.244Z,30.55
2023-03-06T02:54:13.272Z,30.25
2023-03-06T02:56:40.289Z,29.70
2023-03-06T02:59:07.345Z,30.33
2023-03-06T03:01:34.432Z,28.55
2023-03-06T03:04:01.482Z,26.17
2023-03-06T03:06:28.563Z,30.35
2023-03-06T03:08:55.677Z,28.58
2023-03-06T03:11:22.733Z,31.55
2023-03-06T03:13:49.842Z,30.13
2023-03-06T03:16:16.927Z,27.25
2023-03-06T03:18:44.944Z,29.33
2023-03-06T03:21:13.789Z,27.83
2023-03-06T03:23:41.378Z,28.48
2023-03-06T03:26:15.895Z,30.20
2023-03-06T03:28:42.921Z,33.70
2023-03-06T03:31:10.581Z,28.70
2023-03-06T03:33:37.912Z,28.30
2023-03-06T03:36:06.037Z,26.65
2023-03-06T03:38:33.049Z,29.83
2023-03-06T03:41:01.485Z,30.27
2023-03-06T03:43:28.491Z,28.02
2023-03-06T03:45:55.510Z,27.98
2023-03-06T03:48:22.652Z,28.08
2023-03-06T03:50:49.974Z,32.10
2023-03-06T03:53:16.984Z,28.45
2023-03-06T03:55:44.085Z,28.90
2023-03-06T03:58:11.192Z,27.80
2023-03-06T04:00:38.256Z,28.38
2023-03-06T04:03:05.302Z,30.52
2023-03-06T04:05:33.822Z,28.60
2023-03-06T04:08:03.020Z,26.73
2023-03-06T04:10:30.123Z,25.85
2023-03-06T04:12:57.217Z,30.27
2023-03-06T04:15:24.262Z,28.75
2023-03-06T04:17:51.292Z,32.55
2023-03-06T04:20:18.649Z,27.52
2023-03-06T04:22:45.656Z,27.58
2023-03-06T04:25:12.683Z,30.13
2023-03-06T04:27:39.783Z,26.35
2023-03-06T04:30:07.489Z,28.15
2023-03-06T04:32:34.525Z,27.27
2023-03-06T04:35:01.573Z,26.77
2023-03-06T04:37:28.690Z,27.35
2023-03-06T04:39:55.718Z,27.88
2023-03-06T04:42:22.786Z,25.55
2023-03-06T04:44:49.821Z,25.92
2023-03-06T04:47:19.052Z,31.30
2023-03-06T04:49:46.276Z,27.63
2023-03-06T04:52:13.339Z,26.42
2023-03-06T04:54:40.391Z,27.42
2023-03-06T04:57:07.392Z,26.35
2023-03-06T04:59:34.404Z,29.17
2023-03-06T05:02:01.446Z,30.63
2023-03-06T05:04:28.477Z,28.73
2023-03-06T05:06:55.587Z,27.23
2023-03-06T05:09:22.642Z,28.70
2023-03-06T05:11:49.674Z,27.55
2023-03-06T05:14:16.726Z,28.90
2023-03-06T05:16:43.882Z,27.63
2023-03-06T05:19:11.071Z,32.65
2023-03-06T05:21:38.136Z,26.48
2023-03-06T05:24:05.261Z,28.48
2023-03-06T05:26:32.389Z,29.60
2023-03-06T05:28:59.364Z,34.08
2023-03-06T05:31:27.397Z,28.35
2023-03-06T05:33:54.510Z,31.10
2023-03-06T05:36:21.516Z,29.00
2023-03-06T05:38:48.526Z,29.17
2023-03-06T05:41:15.671Z,34.38
2023-03-06T05:43:42.866Z,28.70
2023-03-06T05:46:09.994Z,26.60
2023-03-06T05:48:37.525Z,29.50
2023-03-06T05:51:05.591Z,28.17
2023-03-06T05:53:32.814Z,30.83
2023-03-06T05:56:00.977Z,27.85
2023-03-06T05:58:28.472Z,30.20
2023-03-06T06:00:55.572Z,32.83
2023-03-06T06:03:22.580Z,36.08
2023-03-06T06:05:49.712Z,27.05
2023-03-06T06:08:16.760Z,28.33
2023-03-06T06:10:43.817Z,28.35
2023-03-06T06:13:10.838Z,35.25
2023-03-06T06:15:38.949Z,30.13
2023-03-06T06:18:06.016Z,30.80
2023-03-06T06:20:33.028Z,32.72
2023-03-06T06:23:00.094Z,27.92
2023-03-06T06:25:27.133Z,28.92
2023-03-06T06:27:56.309Z,33.25
2023-03-06T06:30:23.552Z,29.02
2023-03-06T06:32:51.022Z,26.58
2023-03-06T06:35:18.196Z,33.10
2023-03-06T06:37:45.238Z,28.73
2023-03-06T06:40:12.444Z,28.27
2023-03-06T06:42:40.356Z,29.67
2023-03-06T06:45:08.227Z,29.27
2023-03-06T06:47:38.152Z,30.33
2023-03-06T06:50:05.507Z,30.08
2023-03-06T06:52:32.512Z,33.72
2023-03-06T06:54:59.600Z,31.92
2023-03-06T06:57:26.640Z,31.42
2023-03-06T06:59:54.313Z,30.80
2023-03-06T07:02:21.504Z,32.00
2023-03-06T07:05:02.415Z,29.00
2023-03-06T07:07:30.622Z,31.17
2023-03-06T07:09:57.689Z,32.65
2023-03-06T07:12:24.793Z,29.45
2023-03-06T07:14:51.846Z,28.25
2023-03-06T07:17:18.947Z,33.70
2023-03-06T07:19:46.037Z,30.42
2023-03-06T07:22:13.407Z,32.63
2023-03-06T07:24:40.530Z,30.05
2023-03-06T07:27:07.621Z,29.55
2023-03-06T07:29:34.704Z,33.33
2023-03-06T07:32:02.116Z,28.80
2023-03-06T07:34:29.440Z,30.08
2023-03-06T07:36:56.512Z,36.65
2023-03-06T07:39:23.657Z,33.60
2023-03-06T07:41:52.110Z,30.35
2023-03-06T07:44:20.139Z,31.15
2023-03-06T07:46:47.276Z,31.60
2023-03-06T07:49:14.410Z,31.50
2023-03-06T07:51:41.451Z,33.30
2023-03-06T07:54:08.457Z,29.23
2023-03-06T07:56:35.586Z,32.75
2023-03-06T07:59:03.036Z,29.95
2023-03-06T08:01:30.210Z,28.88
2023-03-06T08:03:57.585Z,34.42
2023-03-06T08:06:25.814Z,36.53
2023-03-06T08:08:53.934Z,32.65
2023-03-06T08:11:21.952Z,32.50
2023-03-06T08:13:49.172Z,34.40
2023-03-06T08:16:17.472Z,38.45
2023-03-06T08:18:46.332Z,34.50
2023-03-06T08:21:15.240Z,33.03
2023-03-06T08:23:42.570Z,35.55
2023-03-06T08:26:12.025Z,36.17
2023-03-06T08:28:39.107Z,35.45
2023-03-06T08:31:10.628Z,33.20
2023-03-06T08:33:38.191Z,35.28
2023-03-06T08:36:05.571Z,30.13
2023-03-06T08:38:32.716Z,29.85
2023-03-06T08:40:59.742Z,33.45
2023-03-06T08:43:26.829Z,33.92
2023-03-06T08:45:54.508Z,35.42
2023-03-06T08:48:21.718Z,32.15
2023-03-06T08:50:48.878Z,33.35
2023-03-06T08:53:15.960Z,32.97
2023-03-06T08:55:43.021Z,32.25
2023-03-06T08:58:10.146Z,34.22
2023-03-06T09:00:37.708Z,35.90
2023-03-06T09:03:05.068Z,36.08
2023-03-06T09:05:32.359Z,34.58
2023-03-06T09:07:59.412Z,33.55
2023-03-06T09:10:26.873Z,31.92
2023-03-06T09:12:55.222Z,33.60
2023-03-06T09:15:23.234Z,34.38
2023-03-06T09:17:50.807Z,32.60
2023-03-06T09:20:18.281Z,34.55
2023-03-06T09:22:48.210Z,32.35
2023-03-06T09:25:21.826Z,30.88
2023-03-06T09:27:55.634Z,30.52
2023-03-06T09:30:25.446Z,32.92
2023-03-06T09:32:52.499Z,32.35
2023-03-06T09:35:19.658Z,31.85
2023-03-06T09:37:46.730Z,30.98
2023-03-06T09:40:29.935Z,32.63
2023-03-06T09:42:56.974Z,22.73
2023-03-06T09:45:24.202Z,34.88
2023-03-06T09:47:59.562Z,33.15
2023-03-06T09:50:45.153Z,27.92
2023-03-06T09:53:30.929Z,33.85
2023-03-06T09:56:01.664Z,33.47
2023-03-06T09:58:30.575Z,27.35
2023-03-06T10:01:05.610Z,27.58
2023-03-06T10:03:42.850Z,31.05
2023-03-06T10:06:12.633Z,30.50
2023-03-06T10:08:48.627Z,31.23
2023-03-06T10:11:19.135Z,28.38
2023-03-06T10:13:47.676Z,28.25
2023-03-06T10:16:14.707Z,26.02
2023-03-06T10:18:41.944Z,29.00
2023-03-06T10:21:21.310Z,32.28
2023-03-06T10:23:55.712Z,31.58
2023-03-06T10:26:27.907Z,28.33
2023-03-06T10:29:02.361Z,27.67
2023-03-06T10:31:29.896Z,28.42
2023-03-06T10:33:58.710Z,27.13
2023-03-06T10:36:27.289Z,26.35
2023-03-06T10:38:55.391Z,30.42
2023-03-06T10:41:27.401Z,31.35
2023-03-06T10:44:00.660Z,29.50
2023-03-06T10:46:29.409Z,29.13
2023-03-06T10:49:01.059Z,31.63
2023-03-06T10:51:29.233Z,28.05
2023-03-06T10:54:00.591Z,30.80
2023-03-06T10:56:29.621Z,28.63
2023-03-06T10:59:28.275Z,26.95
2023-03-06T11:01:57.230Z,25.75
2023-03-06T11:04:34.606Z,25.38
2023-03-06T11:07:09.303Z,28.92
2023-03-06T11:09:36.930Z,25.95
2023-03-06T11:12:24.278Z,32.55
2023-03-06T11:15:08.241Z,26.90
2023-03-06T11:17:36.814Z,26.50
2023-03-06T11:20:16.296Z,26.67
2023-03-06T11:22:49.144Z,29.90
2023-03-06T11:25:18.496Z,25.90
2023-03-06T11:27:46.380Z,26.75
2023-03-06T11:30:19.055Z,28.42
2023-03-06T11:32:54.383Z,31.20
2023-03-06T11:35:26.320Z,28.42
2023-03-06T11:37:54.845Z,29.02
2023-03-06T11:40:25.136Z,34.40
2023-03-06T11:43:07.403Z,28.40
2023-03-06T11:45:37.118Z,30.42
2023-03-06T11:48:19.203Z,28.52
2023-03-06T11:50:51.400Z,30.95
2023-03-06T11:53:22.724Z,26.88
2023-03-06T11:55:55.659Z,29.73
2023-03-06T11:58:41.324Z,27.40
2023-03-06T12:01:21.216Z,37.08
2023-03-06T12:04:07.430Z,27.15
2023-03-06T12:06:43.525Z,37.22
2023-03-06T12:09:10.503Z,30.27
2023-03-06T12:11:46.034Z,28.63
2023-03-06T12:14:18.942Z,35.35
2023-03-06T12:16:51.714Z,31.40
2023-03-06T12:19:37.306Z,30.00
2023-03-06T12:22:08.074Z,26.60
2023-03-06T12:24:53.885Z,28.90
2023-03-06T12:27:30.954Z,29.75
2023-03-06T12:30:10.295Z,30.05
2023-03-06T12:32:43.080Z,28.85
2023-03-06T12:35:28.829Z,32.78
2023-03-06T12:38:04.391Z,29.42
2023-03-06T12:40:44.450Z,29.45
2023-03-06T12:43:29.693Z,30.95
2023-03-06T12:45:59.108Z,32.05
2023-03-06T12:48:33.308Z,27.90
2023-03-06T12:51:00.405Z,30.20
2023-03-06T12:53:28.868Z,28.75
2023-03-06T12:55:56.613Z,27.27
2023-03-06T12:58:29.785Z,33.83
2023-03-06T13:01:03.708Z,25.92
2023-03-06T13:03:54.989Z,32.33
2023-03-06T13:06:50.207Z,31.27
2023-03-06T13:09:35.901Z,31.30
2023-03-06T13:12:14.483Z,32.78
2023-03-06T13:14:48.790Z,26.25
2023-03-06T13:17:20.988Z,31.98
2023-03-06T13:19:48.343Z,32.30
2023-03-06T13:22:26.772Z,31.83
2023-03-06T13:25:12.794Z,31.05
2023-03-06T13:27:55.139Z,27.25
2023-03-06T13:30:24.345Z,27.33
2023-03-06T13:32:54.931Z,28.83
2023-03-06T13:35:32.105Z,28.88
2023-03-06T13:38:00.172Z,28.33
2023-03-06T13:40:28.470Z,27.65
2023-03-06T13:43:05.525Z,28.08
2023-03-06T13:45:43.276Z,25.30
2023-03-06T13:48:45.595Z,30.17
2023-03-06T13:51:22.899Z,28.05
2023-03-06T13:54:16.335Z,27.88
2023-03-06T13:57:01.987Z,28.45
2023-03-06T13:59:45.568Z,29.17
2023-03-06T14:02:26.510Z,27.13
2023-03-06T14:04:55.367Z,31.80
2023-03-06T14:07:23.166Z,25.98
2023-03-06T14:09:55.869Z,28.80
2023-03-06T14:12:29.355Z,29.08
2023-03-06T14:15:00.678Z,27.48
2023-03-06T14:17:30.085Z,31.73
2023-03-06T14:19:59.116Z,26.80
2023-03-06T14:22:26.238Z,28.92
2023-03-06T14:25:05.434Z,24.90
2023-03-06T14:28:12.379Z,26.55
2023-03-06T14:30:48.882Z,26.77
2023-03-06T14:33:24.835Z,27.10
2023-03-06T14:35:54.606Z,27.92
2023-03-06T14:38:22.104Z,28.98
2023-03-06T14:40:49.266Z,28.83
2023-03-06T14:43:20.617Z,29.60
2023-03-06T14:45:52.411Z,27.10
2023-03-06T14:48:19.463Z,24.83
2023-03-06T14:50:50.827Z,27.17
2023-03-06T14:53:19.810Z,28.02
2023-03-06T14:55:51.551Z,26.55
2023-03-06T14:58:20.616Z,25.20
2023-03-06T15:00:50.270Z,28.60
2023-03-06T15:03:18.607Z,26.27
2023-03-06T15:05:46.674Z,24.45
2023-03-06T15:08:18.434Z,27.50
2023-03-06T15:10:56.187Z,26.38
2023-03-06T15:13:24.622Z,27.38
2023-03-06T15:15:57.718Z,27.10
2023-03-06T15:18:35.276Z,22.85
2023-03-06T15:21:19.079Z,25.13
2023-03-06T15:23:47.077Z,28.00
2023-03-06T15:26:20.320Z,28.08
2023-03-06T15:28:59.865Z,26.50
2023-03-06T15:31:34.315Z,26.20
2023-03-06T15:34:04.461Z,31.08
2023-03-06T15:36:32.644Z,25.02
2023-03-06T15:39:00.812Z,24.25
2023-03-06T15:41:35.557Z,25.00
2023-03-06T15:44:03.810Z,27.92
2023-03-06T15:46:30.933Z,51.47
2023-03-06T15:49:03.110Z,27.50
2023-03-06T15:51:31.076Z,26.48
2023-03-06T15:54:09.678Z,28.08
2023-03-06T15:56:40.061Z,23.02
2023-03-06T15:59:10.729Z,24.88
2023-03-06T16:01:37.886Z,24.63
2023-03-06T16:04:05.008Z,26.65
2023-03-06T16:06:32.047Z,23.55
2023-03-06T16:08:59.332Z,23.05
2023-03-06T16:11:43.270Z,24.63
2023-03-06T16:14:18.884Z,26.13
2023-03-06T16:16:46.094Z,23.73
2023-03-06T16:19:25.978Z,25.25
2023-03-06T16:21:53.487Z,23.65
2023-03-06T16:24:20.524Z,27.30
2023-03-06T16:26:50.605Z,22.52
2023-03-06T16:29:18.808Z,30.17
2023-03-06T16:31:46.249Z,24.77
2023-03-06T16:34:13.505Z,27.15
2023-03-06T16:36:40.507Z,24.13
2023-03-06T16:39:07.976Z,26.83
2023-03-06T16:41:35.030Z,27.45
2023-03-06T16:44:02.061Z,25.40
2023-03-06T16:46:29.533Z,25.15
2023-03-06T16:48:56.737Z,23.35
2023-03-06T16:51:23.842Z,24.23
2023-03-06T16:53:51.042Z,24.10
2023-03-06T16:56:20.303Z,22.30
2023-03-06T16:58:47.984Z,25.70
2023-03-06T17:01:19.068Z,24.80
2023-03-06T17:03:46.528Z,22.85
2023-03-06T17:06:23.281Z,22.60
2023-03-06T17:08:50.885Z,21.13
2023-03-06T17:11:20.150Z,21.92
2023-03-06T17:13:47.673Z,27.92
2023-03-06T17:16:16.417Z,21.65
2023-03-06T17:18:44.758Z,23.48
2023-03-06T17:21:12.567Z,22.75
2023-03-06T17:23:39.585Z,23.88
2023-03-06T17:26:12.317Z,25.13
2023-03-06T17:28:40.427Z,23.40
2023-03-06T17:31:17.734Z,22.70
2023-03-06T17:33:45.102Z,23.75
2023-03-06T17:36:14.246Z,25.95
2023-03-06T17:38:41.552Z,22.80
2023-03-06T17:41:09.357Z,25.20
2023-03-06T17:43:37.110Z,24.65
2023-03-06T17:46:05.836Z,22.77
2023-03-06T17:48:33.019Z,25.83
2023-03-06T17:51:00.433Z,27.23
2023-03-06T17:53:27.498Z,25.33
2023-03-06T17:55:54.876Z,24.92
2023-03-06T17:58:22.161Z,21.27
2023-03-06T18:00:49.398Z,25.30
2023-03-06T18:03:16.414Z,23.48
2023-03-06T18:05:43.557Z,23.60
2023-03-06T18:08:10.567Z,22.58
2023-03-06T18:10:41.535Z,25.50
2023-03-06T18:13:10.427Z,26.08
2023-03-06T18:15:40.750Z,25.08
2023-03-06T18:18:08.075Z,23.02
2023-03-06T18:20:35.733Z,26.48
2023-03-06T18:23:03.624Z,25.35
2023-03-06T18:25:31.468Z,22.85
2023-03-06T18:27:58.643Z,25.48
2023-03-06T18:30:25.860Z,25.30
2023-03-06T18:32:52.895Z,28.35
2023-03-06T18:35:20.027Z,23.92
2023-03-06T18:37:47.091Z,30.33
2023-03-06T18:40:14.356Z,22.92
2023-03-06T18:42:41.375Z,24.88
2023-03-06T18:45:08.794Z,24.45
2023-03-06T18:47:35.844Z,24.92
2023-03-06T18:50:03.123Z,26.02
2023-03-06T18:52:30.233Z,27.90
2023-03-06T18:54:57.281Z,25.27
2023-03-06T18:57:24.299Z,27.58
2023-03-06T18:59:51.313Z,26.00
2023-03-06T19:02:18.445Z,26.40
2023-03-06T19:04:45.471Z,25.05
2023-03-06T19:07:13.828Z,23.55
2023-03-06T19:09:42.637Z,23.17
2023-03-06T19:12:09.904Z,24.58
2023-03-06T19:14:37.796Z,22.13
2023-03-06T19:17:04.932Z,25.88
2023-03-06T19:19:31.977Z,25.45
2023-03-06T19:21:59.173Z,23.83
2023-03-06T19:24:26.494Z,24.50
2023-03-06T19:26:53.634Z,24.75
2023-03-06T19:29:20.660Z,24.55
2023-03-06T19:31:47.688Z,23.02
2023-03-06T19:34:14.721Z,22.90
2023-03-06T19:36:41.871Z,24.73
2023-03-06T19:39:09.463Z,22.40
2023-03-06T19:41:36.573Z,25.17
2023-03-06T19:44:05.741Z,25.38
2023-03-06T19:46:34.435Z,24.00
2023-03-06T19:49:02.207Z,23.90
2023-03-06T19:51:29.755Z,26.00
2023-03-06T19:53:57.472Z,24.80
2023-03-06T19:56:30.135Z,25.70
2023-03-06T19:58:57.340Z,25.15
2023-03-06T20:01:26.540Z,24.63
2023-03-06T20:04:00.220Z,26.35
2023-03-06T20:06:33.293Z,25.90
2023-03-06T20:09:01.313Z,28.42
2023-03-06T20:11:29.951Z,27.90
2023-03-06T20:13:57.982Z,24.40
2023-03-06T20:16:25.216Z,26.55
2023-03-06T20:18:52.390Z,22.77
2023-03-06T20:21:21.395Z,27.13
2023-03-06T20:23:48.635Z,23.65
2023-03-06T20:26:15.995Z,27.20
2023-03-06T20:28:43.104Z,26.00
2023-03-06T20:31:11.706Z,24.77
2023-03-06T20:33:38.792Z,24.00
2023-03-06T20:36:11.757Z,23.15
2023-03-06T20:38:39.128Z,23.17
2023-03-06T20:41:06.152Z,22.92
2023-03-06T20:43:33.259Z,23.25
2023-03-06T20:46:01.326Z,23.02
2023-03-06T20:48:28.648Z,23.25
2023-03-06T20:51:03.117Z,25.70
2023-03-06T20:53:30.355Z,26.83
2023-03-06T20:55:57.461Z,21.92
2023-03-06T20:58:26.599Z,22.83
2023-03-06T21:00:53.678Z,24.75
2023-03-06T21:03:20.823Z,24.58
2023-03-06T21:05:47.915Z,23.55
2023-03-06T21:08:15.617Z,27.48
2023-03-06T21:10:43.016Z,25.95
2023-03-06T21:13:10.045Z,24.17
2023-03-06T21:15:38.823Z,26.95
2023-03-06T21:18:06.366Z,25.63
2023-03-06T21:20:33.783Z,25.85
2023-03-06T21:23:03.969Z,26.45
2023-03-06T21:25:31.283Z,24.60
2023-03-06T21:28:00.119Z,23.50
2023-03-06T21:30:28.370Z,21.95
2023-03-06T21:32:55.473Z,23.98
2023-03-06T21:35:22.559Z,23.65
2023-03-06T21:37:49.584Z,24.48
2023-03-06T21:40:17.754Z,23.30
2023-03-06T21:42:44.765Z,27.77
2023-03-06T21:45:12.031Z,24.95
2023-03-06T21:47:40.881Z,22.90
2023-03-06T21:50:09.009Z,23.95
2023-03-06T21:52:36.153Z,24.95
2023-03-06T21:55:03.219Z,24.92
2023-03-06T21:57:30.414Z,24.15
2023-03-06T21:59:57.490Z,24.10
2023-03-06T22:02:24.857Z,25.80
2023-03-06T22:04:52.544Z,24.38
2023-03-06T22:07:20.598Z,25.20
2023-03-06T22:09:47.887Z,24.15
2023-03-06T22:12:14.922Z,24.10
2023-03-06T22:14:44.221Z,24.13
2023-03-06T22:17:11.285Z,28.15
2023-03-06T22:19:38.306Z,26.67
2023-03-06T22:22:05.866Z,25.13
2023-03-06T22:24:32.975Z,22.77
2023-03-06T22:27:00.010Z,26.27
2023-03-06T22:29:27.220Z,24.33
2023-03-06T22:31:54.291Z,25.27
2023-03-06T22:34:21.329Z,25.33
2023-03-06T22:36:48.433Z,25.48
2023-03-06T22:39:15.615Z,26.45
2023-03-06T22:41:42.613Z,22.70
2023-03-06T22:44:15.092Z,21.52
2023-03-06T22:46:42.139Z,25.95
2023-03-06T22:49:10.115Z,27.63
2023-03-06T22:51:37.640Z,27.70
2023-03-06T22:54:05.184Z,24.02
2023-03-06T22:56:32.217Z,25.05
2023-03-06T22:58:59.501Z,26.77
2023-03-06T23:01:28.099Z,27.08
2023-03-06T23:03:56.343Z,30.55
2023-03-06T23:06:25.204Z,24.27
2023-03-06T23:08:54.077Z,23.42
2023-03-06T23:11:22.218Z,27.60
2023-03-06T23:13:49.274Z,26.27
2023-03-06T23:16:16.440Z,22.85
2023-03-06T23:18:43.513Z,25.45
2023-03-06T23:21:11.816Z,27.15
2023-03-06T23:23:39.093Z,24.77
2023-03-06T23:26:06.924Z,23.85
2023-03-06T23:28:34.861Z,24.08
2023-03-06T23:31:06.971Z,24.70
2023-03-06T23:33:34.051Z,26.00
2023-03-06T23:36:05.010Z,23.02
2023-03-06T23:38:32.481Z,26.63
2023-03-06T23:41:06.994Z,27.27
2023-03-06T23:43:34.187Z,25.45
2023-03-06T23:46:01.751Z,26.48
2023-03-06T23:48:29.416Z,26.70
2023-03-06T23:50:56.616Z,26.55
2023-03-06T23:55:59.916Z,26.35
2023-03-06T23:58:26.920Z,23.58
